Time;durP1;ratioP1;P1;durP2;ratioP2;P2;SDS_P1;SDS_P2;PMS_P1;PMS_P2;Temp;Humidity;BMP_temperature;BMP_pressure;BME280_temperature;BME280_humidity;BME280_pressure;Samples;Min_cycle;Max_cycle;Signal;HPM_P1;HPM_P2
2022/08/23 00:00:11;;;;;;;4.90;1.60;;;26.20;96.70;;;;;;5054900;28;20511;-74
2022/08/23 00:02:41;;;;;;;3.30;1.95;;;26.20;96.70;;;;;;5038419;28;20114;-74
2022/08/23 00:05:10;;;;;;;5.25;1.88;;;26.30;96.70;;;;;;5051951;28;20053;-74
2022/08/23 00:07:41;;;;;;;2.97;1.60;;;26.20;96.70;;;;;;5045637;28;20053;-74
2022/08/23 00:10:13;;;;;;;4.18;1.40;;;26.00;96.70;;;;;;5058082;28;20047;-74
2022/08/23 00:12:43;;;;;;;4.10;1.33;;;25.80;96.70;;;;;;5064518;28;20048;-75
2022/08/23 00:15:15;;;;;;;6.55;1.80;;;25.70;96.70;;;;;;5042069;28;20071;-74
2022/08/23 00:17:45;;;;;;;5.60;1.95;;;25.60;96.70;;;;;;5057388;28;20044;-75
2022/08/23 00:20:15;;;;;;;2.10;1.75;;;25.50;96.70;;;;;;5045394;28;20078;-75
2022/08/23 00:22:44;;;;;;;2.28;1.38;;;25.60;96.70;;;;;;5056052;28;20053;-74
2022/08/23 00:25:14;;;;;;;2.85;1.73;;;25.50;96.70;;;;;;5061365;28;20041;-74
2022/08/23 00:27:42;;;;;;;4.13;1.83;;;25.60;96.70;;;;;;5057389;28;20041;-74
2022/08/23 00:30:14;;;;;;;3.67;1.55;;;25.70;96.70;;;;;;5045568;28;20582;-74
2022/08/23 00:32:44;;;;;;;2.80;1.60;;;25.80;96.70;;;;;;5046328;28;20075;-75
2022/08/23 00:35:13;;;;;;;2.22;1.38;;;25.70;96.70;;;;;;5044355;28;20049;-75
2022/08/23 00:37:55;;;;;;;4.38;1.20;;;25.60;96.70;;;;;;5041670;28;20128;-74
2022/08/23 00:40:45;;;;;;;5.13;1.70;;;25.60;96.70;;;;;;5052981;28;20524;-74
2022/08/23 00:49:06;;;;;;;2.60;1.40;;;25.50;96.70;;;;;;5036376;28;20052;-74
2022/08/23 00:51:40;;;;;;;4.45;1.67;;;25.30;96.70;;;;;;5077503;28;20569;-75
2022/08/23 00:54:22;;;;;;;1.70;1.60;;;25.30;96.70;;;;;;5035461;28;20056;-75
2022/08/23 00:56:51;;;;;;;4.22;1.90;;;25.40;96.70;;;;;;5062857;28;20045;-74
2022/08/23 00:59:20;;;;;;;4.05;1.42;;;25.50;96.70;;;;;;5022300;28;20044;-74
2022/08/23 01:01:50;;;;;;;2.17;1.60;;;25.50;96.70;;;;;;5056516;28;20091;-75
2022/08/23 01:04:19;;;;;;;3.40;1.73;;;25.50;96.70;;;;;;5048601;28;20961;-75
2022/08/23 01:06:54;;;;;;;2.47;1.45;;;25.50;96.70;;;;;;5022111;28;20427;-75
2022/08/23 01:09:23;;;;;;;2.57;1.70;;;25.50;96.70;;;;;;5030485;28;20160;-74
2022/08/23 01:11:59;;;;;;;6.00;2.00;;;25.60;96.70;;;;;;5024899;28;20783;-74
2022/08/23 01:14:31;;;;;;;2.95;1.50;;;25.50;96.70;;;;;;5045308;28;20163;-75
2022/08/23 01:17:05;;;;;;;3.13;1.58;;;25.50;96.70;;;;;;5041171;28;20044;-75
2022/08/23 01:19:37;;;;;;;2.28;1.52;;;25.60;96.70;;;;;;5037290;28;20413;-75
2022/08/23 01:22:12;;;;;;;5.65;1.80;;;25.60;96.70;;;;;;5069848;28;20130;-75
2022/08/23 01:24:43;;;;;;;3.30;1.85;;;25.50;96.70;;;;;;5038897;28;20052;-74
2022/08/23 01:27:34;;;;;;;3.75;1.80;;;25.30;96.70;;;;;;5022291;28;20156;-75
2022/08/23 01:30:07;;;;;;;3.15;1.60;;;25.30;96.70;;;;;;5039300;28;20407;-75
2022/08/23 01:32:43;;;;;;;2.80;1.55;;;25.20;96.70;;;;;;5043392;28;20056;-74
2022/08/23 01:35:12;;;;;;;3.20;1.60;;;25.30;96.70;;;;;;5042325;28;20079;-75
2022/08/23 01:37:42;;;;;;;2.28;1.33;;;25.30;96.70;;;;;;5023014;28;20043;-75
2022/08/23 01:40:13;;;;;;;3.25;1.50;;;25.20;96.70;;;;;;5044158;28;20404;-74
2022/08/23 01:42:41;;;;;;;6.00;1.70;;;25.20;96.70;;;;;;5034617;28;20045;-74
2022/08/23 01:45:13;;;;;;;2.55;1.40;;;25.20;96.70;;;;;;5049076;28;20508;-75
2022/08/23 01:47:42;;;;;;;3.15;1.50;;;25.10;96.70;;;;;;5046038;28;20045;-75
2022/08/23 01:50:12;;;;;;;4.32;2.13;;;25.00;96.70;;;;;;5026374;28;20140;-75
2022/08/23 01:52:41;;;;;;;2.53;1.85;;;24.90;96.70;;;;;;5056519;28;20539;-74
2022/08/23 01:55:18;;;;;;;2.03;1.40;;;25.10;96.70;;;;;;5039083;28;20166;-74
2022/08/23 01:57:51;;;;;;;2.28;1.73;;;25.10;96.70;;;;;;5038402;28;20752;-73
2022/08/23 02:00:22;;;;;;;1.67;1.50;;;25.00;96.70;;;;;;5024471;28;20049;-74
2022/08/23 02:02:51;;;;;;;2.58;1.48;;;25.10;96.70;;;;;;5045986;28;20051;-74
2022/08/23 02:05:19;;;;;;;4.32;1.52;;;25.10;96.70;;;;;;5044299;28;20053;-75
2022/08/23 02:07:48;;;;;;;2.35;1.42;;;25.10;96.70;;;;;;5039411;28;20072;-74
2022/08/23 02:10:19;;;;;;;2.28;1.27;;;25.00;96.70;;;;;;5040639;28;20051;-75
2022/08/23 02:12:51;;;;;;;2.80;1.75;;;24.80;96.70;;;;;;5040263;28;20076;-74
2022/08/23 02:15:21;;;;;;;2.42;1.42;;;24.90;96.70;;;;;;5037640;28;20072;-74
2022/08/23 02:17:49;;;;;;;5.57;1.70;;;24.90;96.70;;;;;;5043180;28;20052;-74
2022/08/23 02:20:18;;;;;;;3.85;1.55;;;24.90;96.70;;;;;;5041643;28;20105;-74
2022/08/23 02:22:46;;;;;;;2.42;1.50;;;25.00;96.70;;;;;;5038048;28;20094;-74
2022/08/23 02:25:14;;;;;;;4.00;1.40;;;25.00;96.70;;;;;;5027578;28;20052;-74
2022/08/23 02:27:44;;;;;;;4.63;1.98;;;24.90;96.70;;;;;;5041562;28;20106;-75
2022/08/23 02:30:14;;;;;;;3.50;1.95;;;24.90;96.70;;;;;;5027314;28;20087;-74
2022/08/23 02:32:42;;;;;;;2.83;1.58;;;24.60;96.70;;;;;;5047925;28;20048;-74
2022/08/23 02:35:12;;;;;;;5.05;1.65;;;24.60;96.70;;;;;;5043060;28;20045;-74
2022/08/23 02:37:40;;;;;;;2.28;1.48;;;24.60;96.70;;;;;;5026746;28;20041;-74
2022/08/23 02:40:10;;;;;;;1.73;1.60;;;24.60;96.70;;;;;;5022339;28;20143;-74
2022/08/23 02:42:38;;;;;;;5.95;1.70;;;24.70;96.70;;;;;;5039630;28;20126;-74
2022/08/23 02:45:09;;;;;;;4.25;1.63;;;24.70;96.70;;;;;;5033368;28;20569;-74
2022/08/23 02:47:43;;;;;;;;;;;24.50;96.70;;;;;;5053462;28;20045;-74
2022/08/23 02:50:23;;;;;;;2.35;1.50;;;24.60;96.70;;;;;;5030142;28;20357;-74
2022/08/23 02:52:52;;;;;;;5.30;1.67;;;24.60;96.70;;;;;;5058507;28;20036;-73
2022/08/23 02:55:21;;;;;;;3.55;1.48;;;24.60;96.70;;;;;;5037717;28;20497;-74
2022/08/23 02:57:49;;;;;;;3.70;1.40;;;24.60;96.70;;;;;;5040476;28;20138;-74
2022/08/23 03:00:18;;;;;;;2.33;1.50;;;24.60;96.70;;;;;;5053215;28;20478;-74
2022/08/23 03:02:50;;;;;;;2.25;1.38;;;24.60;96.70;;;;;;5037281;28;20041;-74
2022/08/23 03:05:19;;;;;;;2.65;1.48;;;24.70;96.70;;;;;;5038436;28;20554;-75
2022/08/23 03:07:46;;;;;;;1.70;1.27;;;24.60;96.70;;;;;;5024838;28;20041;-75
2022/08/23 03:10:15;;;;;;;2.60;1.63;;;24.60;96.70;;;;;;5038946;28;20136;-75
2022/08/23 03:12:51;;;;;;;2.10;1.40;;;24.60;96.70;;;;;;5030906;28;20490;-75
2022/08/23 03:15:21;;;;;;;2.70;1.55;;;24.50;96.70;;;;;;5024237;28;20055;-76
2022/08/23 03:17:49;;;;;;;3.35;1.60;;;24.50;96.70;;;;;;5040035;28;20061;-75
2022/08/23 03:20:17;;;;;;;5.40;1.50;;;24.40;96.70;;;;;;5042414;28;20167;-75
2022/08/23 03:22:46;;;;;;;4.15;1.60;;;24.30;96.70;;;;;;5055025;28;20665;-75
2022/08/23 03:25:23;;;;;;;2.75;1.60;;;24.30;96.70;;;;;;5025135;28;20110;-75
2022/08/23 03:28:11;;;;;;;3.72;1.70;;;24.40;96.70;;;;;;5029156;28;20148;-75
2022/08/23 03:30:45;;;;;;;4.57;1.70;;;24.40;96.70;;;;;;5029518;28;20044;-75
2022/08/23 03:33:14;;;;;;;3.58;1.70;;;24.30;96.70;;;;;;5037665;28;20753;-74
2022/08/23 03:35:42;;;;;;;3.25;1.90;;;24.40;96.70;;;;;;5042009;28;20129;-76
2022/08/23 03:38:13;;;;;;;1.73;1.63;;;24.20;96.70;;;;;;5028169;28;20110;-76
2022/08/23 03:40:42;;;;;;;3.35;1.35;;;24.20;96.70;;;;;;5026649;28;20056;-75
2022/08/23 03:43:10;;;;;;;4.18;1.60;;;24.20;96.70;;;;;;5043059;28;20044;-75
2022/08/23 03:45:38;;;;;;;3.92;1.70;;;24.20;96.70;;;;;;5054645;28;20502;-75
2022/08/23 03:48:09;;;;;;;4.05;1.50;;;24.10;96.70;;;;;;5040965;28;20086;-75
2022/08/23 03:50:37;;;;;;;6.03;1.88;;;24.00;96.70;;;;;;5038178;28;20099;-75
2022/08/23 03:53:05;;;;;;;2.88;1.45;;;24.10;96.70;;;;;;5058344;28;20120;-75
2022/08/23 03:55:35;;;;;;;3.83;1.48;;;24.20;96.70;;;;;;5041803;28;20049;-75
2022/08/23 03:58:11;;;;;;;2.30;1.77;;;24.10;96.70;;;;;;5044591;28;20123;-76
2022/08/23 04:00:39;;;;;;;2.58;1.25;;;24.00;96.70;;;;;;5046672;28;20072;-75
2022/08/23 04:03:08;;;;;;;3.60;2.10;;;23.90;96.70;;;;;;5025764;28;20560;-75
2022/08/23 04:05:52;;;;;;;4.38;1.70;;;23.80;96.70;;;;;;5039973;28;20147;-75
2022/08/23 04:08:22;;;;;;;3.08;1.48;;;23.80;96.70;;;;;;5046984;28;20167;-75
2022/08/23 04:11:03;;;;;;;4.25;1.75;;;23.90;96.70;;;;;;5039983;28;20049;-75
2022/08/23 04:13:32;;;;;;;7.45;4.20;;;24.00;96.70;;;;;;5029017;28;20056;-75
2022/08/23 04:16:03;;;;;;;5.55;4.78;;;24.00;96.70;;;;;;5045674;28;20091;-75
2022/08/23 04:18:35;;;;;;;6.05;4.28;;;24.10;96.70;;;;;;5044446;28;20044;-76
2022/08/23 04:21:11;;;;;;;5.28;3.53;;;24.00;96.70;;;;;;5045612;28;20057;-76
2022/08/23 04:23:39;;;;;;;6.05;3.75;;;24.00;96.70;;;;;;5023907;28;20045;-75
2022/08/23 04:26:08;;;;;;;6.07;2.70;;;23.90;96.70;;;;;;5030973;28;20128;-75
2022/08/23 04:28:37;;;;;;;5.00;2.40;;;24.00;96.70;;;;;;5029813;28;20072;-75
2022/08/23 04:31:05;;;;;;;4.13;2.80;;;24.00;96.70;;;;;;5042469;28;20040;-75
2022/08/23 04:33:35;;;;;;;5.78;3.20;;;24.00;96.70;;;;;;5072727;28;20077;-75
2022/08/23 04:36:09;;;;;;;5.47;3.55;;;23.90;96.70;;;;;;5035142;28;20051;-75
2022/08/23 04:38:37;;;;;;;6.80;4.13;;;23.90;96.70;;;;;;5043426;28;20053;-75
2022/08/23 04:43:58;;;;;;;8.35;3.75;;;23.70;96.70;;;;;;5074022;28;20047;-75
2022/08/23 04:46:27;;;;;;;5.10;3.05;;;23.70;96.70;;;;;;5068560;28;20139;-76
2022/08/23 04:48:59;;;;;;;6.35;3.10;;;23.60;96.70;;;;;;5026693;28;20044;-75
2022/08/23 04:51:28;;;;;;;6.88;3.20;;;23.50;96.70;;;;;;5026100;28;20045;-75
2022/08/23 04:53:56;;;;;;;4.57;3.70;;;23.60;96.70;;;;;;5044152;28;20074;-75
2022/08/23 04:56:49;;;;;;;4.45;2.75;;;23.70;96.70;;;;;;5039830;28;20053;-75
2022/08/23 04:59:21;;;;;;;4.70;2.63;;;23.80;96.70;;;;;;5019113;28;20084;-75
2022/08/23 05:01:49;;;;;;;4.45;2.58;;;23.70;96.70;;;;;;5038292;28;20446;-75
2022/08/23 05:04:19;;;;;;;4.35;2.22;;;23.60;96.70;;;;;;5047006;28;20056;-74
2022/08/23 05:06:48;;;;;;;3.10;1.70;;;23.80;96.70;;;;;;5043144;28;20049;-75
2022/08/23 05:09:16;;;;;;;1.98;1.70;;;23.80;96.70;;;;;;5035290;28;20049;-75
2022/08/23 05:11:48;;;;;;;3.40;1.60;;;23.70;96.70;;;;;;5062832;28;20041;-74
2022/08/23 05:14:17;;;;;;;2.58;2.00;;;23.60;96.70;;;;;;5028846;28;20075;-75
2022/08/23 05:16:45;;;;;;;4.18;1.92;;;23.70;96.70;;;;;;5043564;28;20059;-74
2022/08/23 05:19:14;;;;;;;2.85;1.83;;;23.80;96.70;;;;;;5039393;28;20041;-75
2022/08/23 05:21:45;;;;;;;2.70;1.50;;;23.80;96.70;;;;;;5028385;28;20049;-74
2022/08/23 05:24:14;;;;;;;5.95;1.80;;;23.90;96.70;;;;;;5035149;28;20048;-75
2022/08/23 05:26:44;;;;;;;3.05;2.13;;;23.60;96.70;;;;;;5023063;28;20506;-75
2022/08/23 05:29:13;;;;;;;5.38;2.58;;;23.90;96.70;;;;;;5038784;28;20049;-76
2022/08/23 05:31:45;;;;;;;6.50;3.90;;;23.90;96.70;;;;;;5037743;28;20041;-74
2022/08/23 05:34:18;;;;;;;5.22;3.78;;;23.80;96.70;;;;;;5038481;28;20049;-76
2022/08/23 05:36:57;;;;;;;4.40;2.95;;;23.70;96.70;;;;;;5024680;28;20168;-75
2022/08/23 05:39:31;;;;;;;6.80;3.80;;;23.50;96.70;;;;;;5038022;28;20041;-75
2022/08/23 05:42:05;;;;;;;5.90;2.88;;;23.40;96.70;;;;;;5036403;28;20064;-76
2022/08/23 05:44:33;;;;;;;5.85;2.83;;;23.40;96.70;;;;;;5058506;28;20067;-75
2022/08/23 05:47:05;;;;;;;5.85;3.08;;;23.50;96.70;;;;;;5035668;28;20056;-75
2022/08/23 05:49:45;;;;;;;5.38;3.83;;;23.50;96.70;;;;;;5039474;28;20461;-75
2022/08/23 05:52:14;;;;;;;8.15;4.35;;;23.60;96.70;;;;;;5044804;28;20426;-76
2022/08/23 05:54:43;;;;;;;8.95;5.40;;;23.50;96.70;;;;;;5043796;28;20036;-75
2022/08/23 05:57:44;;;;;;;11.38;5.95;;;23.50;96.70;;;;;;4997909;28;21619;-75
2022/08/23 06:00:14;;;;;;;11.02;5.53;;;23.50;96.70;;;;;;5045012;28;20184;-75
2022/08/23 06:02:59;;;;;;;9.02;5.22;;;23.40;96.70;;;;;;5036420;28;20044;-75
2022/08/23 06:05:27;;;;;;;6.60;3.97;;;23.30;96.70;;;;;;5027697;28;20053;-76
2022/08/23 06:07:58;;;;;;;5.50;3.20;;;23.40;96.70;;;;;;5045688;28;20101;-73
2022/08/23 06:10:26;;;;;;;4.57;2.90;;;23.30;96.70;;;;;;5028120;28;20053;-75
2022/08/23 06:13:11;;;;;;;4.60;2.63;;;23.30;96.70;;;;;;5042478;28;20450;-76
2022/08/23 06:15:42;;;;;;;8.95;2.83;;;23.40;96.70;;;;;;5056664;28;20053;-76
2022/08/23 06:18:13;;;;;;;3.65;2.10;;;23.60;96.70;;;;;;5042142;28;20667;-77
2022/08/23 06:20:41;;;;;;;2.92;1.92;;;23.60;96.70;;;;;;5027089;28;20040;-76
2022/08/23 06:23:15;;;;;;;3.72;2.35;;;23.80;96.70;;;;;;5058108;28;20082;-75
2022/08/23 06:25:44;;;;;;;2.55;1.95;;;23.70;96.70;;;;;;5035905;28;20049;-76
2022/08/23 06:28:14;;;;;;;4.40;1.98;;;23.80;96.70;;;;;;5038432;28;20044;-74
2022/08/23 06:30:42;;;;;;;3.47;1.70;;;23.90;96.70;;;;;;5040024;28;20049;-74
2022/08/23 06:33:21;;;;;;;3.72;2.00;;;24.00;96.70;;;;;;5041234;28;20048;-74
2022/08/23 06:36:10;;;;;;;4.72;2.10;;;24.10;96.70;;;;;;5048317;28;20183;-75
2022/08/23 06:39:07;;;;;;;4.70;2.47;;;24.00;96.70;;;;;;5043047;28;20049;-74
2022/08/23 06:42:06;;;;;;;3.40;2.08;;;24.10;96.70;;;;;;5025671;28;20044;-75
2022/08/23 06:45:00;;;;;;;3.65;1.92;;;24.00;96.70;;;;;;5036373;28;20040;-75
2022/08/23 06:47:41;;;;;;;8.82;2.08;;;24.10;96.70;;;;;;5066356;28;20079;-74
2022/08/23 06:50:09;;;;;;;3.05;2.20;;;24.20;96.70;;;;;;5030562;28;20126;-74
2022/08/23 06:52:56;;;;;;;4.65;2.17;;;24.20;96.70;;;;;;5062377;28;20056;-75
2022/08/23 06:55:51;;;;;;;9.05;2.65;;;24.30;96.70;;;;;;5018513;28;20063;-75
2022/08/23 06:58:39;;;;;;;3.78;2.00;;;24.40;96.70;;;;;;5039064;28;20115;-75
2022/08/23 07:01:24;;;;;;;6.38;1.80;;;24.40;96.70;;;;;;5063229;28;20049;-75
2022/08/23 07:04:25;;;;;;;3.92;2.50;;;24.50;96.70;;;;;;5035894;28;20515;-75
2022/08/23 07:07:26;;;;;;;4.05;1.92;;;24.40;96.70;;;;;;5018258;28;20468;-74
2022/08/23 07:10:13;;;;;;;3.50;1.98;;;24.50;96.70;;;;;;5072295;28;20159;-75
2022/08/23 07:12:44;;;;;;;2.97;1.77;;;24.60;96.70;;;;;;5035504;28;20429;-75
2022/08/23 07:15:13;;;;;;;7.22;2.25;;;24.60;96.70;;;;;;5040453;28;20076;-74
2022/08/23 07:17:44;;;;;;;5.32;2.20;;;24.70;96.70;;;;;;5042937;28;20610;-74
2022/08/23 07:20:13;;;;;;;3.35;2.50;;;24.80;96.70;;;;;;5037250;28;20099;-75
2022/08/23 07:22:43;;;;;;;5.15;2.45;;;24.80;96.70;;;;;;5026030;28;20102;-76
2022/08/23 07:25:14;;;;;;;3.55;2.15;;;24.90;96.70;;;;;;5040423;28;20138;-76
2022/08/23 07:27:50;;;;;;;2.63;2.13;;;24.90;96.70;;;;;;5035854;28;20049;-75
2022/08/23 07:30:20;;;;;;;4.85;2.40;;;25.00;96.70;;;;;;5053732;28;20127;-76
2022/08/23 07:32:50;;;;;;;3.63;2.28;;;25.00;96.70;;;;;;5025623;28;20082;-76
2022/08/23 07:35:21;;;;;;;3.72;2.60;;;25.00;96.70;;;;;;5038281;28;20076;-76
2022/08/23 07:37:54;;;;;;;4.88;2.50;;;25.10;96.70;;;;;;5019507;28;20052;-76
2022/08/23 07:40:26;;;;;;;5.20;2.20;;;25.20;96.70;;;;;;5035024;28;20450;-76
2022/08/23 07:42:59;;;;;;;5.90;2.50;;;25.30;96.70;;;;;;5037573;28;20506;-75
2022/08/23 07:45:28;;;;;;;4.43;1.90;;;25.40;96.70;;;;;;5040542;28;20565;-74
2022/08/23 07:48:00;;;;;;;2.45;2.25;;;25.40;96.70;;;;;;5037620;28;20123;-74
2022/08/23 07:50:34;;;;;;;4.80;2.38;;;25.40;96.70;;;;;;5039308;28;20045;-75
2022/08/23 07:53:03;;;;;;;6.55;2.20;;;25.50;96.70;;;;;;5052830;28;20049;-76
2022/08/23 07:55:32;;;;;;;2.75;2.13;;;25.50;96.70;;;;;;5041973;28;20037;-76
2022/08/23 07:58:31;;;;;;;2.60;2.08;;;25.60;96.70;;;;;;5032296;28;20056;-76
2022/08/23 08:01:21;;;;;;;2.28;2.08;;;25.70;96.70;;;;;;5037482;28;20051;-76
2022/08/23 08:03:52;;;;;;;4.25;2.00;;;25.70;96.70;;;;;;5038620;28;20057;-76
2022/08/23 08:06:34;;;;;;;3.22;2.17;;;25.70;96.70;;;;;;5036132;28;20045;-76
2022/08/23 08:09:03;;;;;;;3.88;2.35;;;25.80;96.70;;;;;;5039568;28;20128;-76
2022/08/23 08:11:33;;;;;;;4.20;2.17;;;25.80;96.70;;;;;;5068158;28;20056;-77
2022/08/23 08:14:07;;;;;;;4.18;2.15;;;25.90;96.70;;;;;;5040168;28;20053;-77
2022/08/23 08:16:44;;;;;;;4.25;2.45;;;26.00;96.70;;;;;;5036371;28;20044;-77
2022/08/23 08:19:18;;;;;;;3.92;2.10;;;26.10;96.70;;;;;;5042557;28;20122;-76
2022/08/23 08:22:05;;;;;;;4.60;2.30;;;26.20;96.70;;;;;;5052466;28;20063;-75
2022/08/23 08:24:56;;;;;;;4.15;2.55;;;26.20;96.70;;;;;;5052235;28;20049;-75
2022/08/23 08:27:25;;;;;;;5.90;2.83;;;26.30;96.70;;;;;;5043962;28;20417;-75
2022/08/23 08:29:56;;;;;;;5.57;2.97;;;26.30;96.70;;;;;;5019916;28;20048;-75
2022/08/23 08:32:24;;;;;;;5.68;3.47;;;26.40;96.70;;;;;;5037742;28;20040;-75
2022/08/23 08:34:53;;;;;;;4.32;2.30;;;26.40;96.70;;;;;;5044739;28;20040;-76
2022/08/23 08:37:21;;;;;;;4.10;2.78;;;26.40;96.70;;;;;;5042180;28;20052;-75
2022/08/23 08:39:50;;;;;;;5.78;3.35;;;26.50;96.70;;;;;;5030231;28;20051;-76
2022/08/23 08:42:32;;;;;;;6.10;3.30;;;26.60;96.70;;;;;;5042760;28;20053;-76
2022/08/23 08:45:08;;;;;;;5.45;3.40;;;26.60;96.70;;;;;;5059725;28;20086;-75
2022/08/23 08:47:44;;;;;;;6.47;3.08;;;26.60;96.70;;;;;;5029761;28;20045;-75
2022/08/23 08:50:19;;;;;;;4.30;3.20;;;26.70;96.70;;;;;;5031796;28;20056;-76
2022/08/23 08:52:54;;;;;;;5.57;3.65;;;26.80;96.70;;;;;;5045358;28;20052;-76
2022/08/23 08:55:48;;;;;;;5.65;3.60;;;26.80;96.70;;;;;;5039544;28;20052;-75
2022/08/23 08:58:19;;;;;;;;;;;26.90;96.70;;;;;;5045708;28;20056;-76
2022/08/23 09:00:49;;;;;;;4.40;3.55;;;26.80;96.70;;;;;;5040866;28;19924;-74
2022/08/23 09:03:32;;;;;;;;;;;26.80;96.70;;;;;;5029013;28;20375;-74
2022/08/23 09:06:09;;;;;;;3.75;2.70;;;26.90;96.70;;;;;;5016607;28;19929;-74
2022/08/23 09:08:53;;;;;;;5.03;2.78;;;26.90;96.70;;;;;;5021727;28;20471;-74
2022/08/23 09:11:33;;;;;;;6.78;2.60;;;27.00;96.70;;;;;;5017912;28;20057;-75
2022/08/23 09:14:29;;;;;;;3.95;3.00;;;27.10;96.70;;;;;;5021905;28;20057;-72
2022/08/23 09:17:04;;;;;;;4.45;2.22;;;27.20;96.70;;;;;;5002595;28;20438;-74
2022/08/23 09:19:36;;;;;;;6.85;2.15;;;27.30;96.70;;;;;;4995588;28;20074;-74
2022/08/23 09:22:12;;;;;;;3.25;2.40;;;27.40;96.70;;;;;;5020340;28;20443;-74
2022/08/23 09:24:40;;;;;;;;;;;27.40;96.70;;;;;;5018305;28;20073;-77
2022/08/23 09:27:15;;;;;;;4.28;1.90;;;27.50;96.70;;;;;;5005439;28;19925;-76
2022/08/23 09:29:55;;;;;;;6.55;2.30;;;27.60;96.70;;;;;;5015388;28;20132;-76
2022/08/23 09:32:31;;;;;;;4.32;1.55;;;27.60;96.70;;;;;;5045925;28;20049;-76
2022/08/23 09:35:10;;;;;;;2.72;1.80;;;27.70;96.70;;;;;;5012964;28;20053;-76
2022/08/23 09:37:59;;;;;;;3.72;1.48;;;27.90;96.70;;;;;;5019472;28;20052;-76
2022/08/23 09:40:34;;;;;;;5.47;2.20;;;28.10;96.70;;;;;;5019726;28;20094;-76
2022/08/23 09:43:09;;;;;;;;;;;28.20;96.70;;;;;;4996919;28;20508;-76
2022/08/23 09:45:39;;;;;;;3.63;2.15;;;28.20;96.70;;;;;;5018777;28;19931;-76
2022/08/23 09:48:14;;;;;;;4.43;2.08;;;28.30;96.70;;;;;;5019036;28;20042;-76
2022/08/23 09:50:53;;;;;;;4.65;2.17;;;28.20;96.70;;;;;;5018319;28;20049;-74
2022/08/23 09:53:26;;;;;;;3.92;1.80;;;28.30;96.70;;;;;;5015010;28;20543;-74
2022/08/23 09:56:10;;;;;;;2.63;1.80;;;28.50;96.70;;;;;;5020564;28;20065;-74
2022/08/23 09:58:41;;;;;;;1.90;1.40;;;28.50;96.70;;;;;;5012812;28;20053;-74
2022/08/23 10:01:18;;;;;;;1.95;1.50;;;28.60;96.70;;;;;;5019037;28;20045;-74
2022/08/23 10:04:11;;;;;;;3.70;1.38;;;28.90;96.70;;;;;;5022336;28;20053;-74
2022/08/23 10:06:41;;;;;;;2.47;1.70;;;29.00;96.70;;;;;;5022822;28;20103;-74
2022/08/23 10:09:23;;;;;;;2.17;1.30;;;29.20;96.70;;;;;;5037161;28;20072;-74
2022/08/23 10:11:54;;;;;;;1.88;1.20;;;29.40;96.70;;;;;;5042457;28;20066;-74
2022/08/23 10:14:25;;;;;;;5.43;1.70;;;29.40;96.70;;;;;;5052131;28;20151;-74
2022/08/23 10:17:09;;;;;;;2.75;1.13;;;29.40;96.70;;;;;;5037159;28;20426;-74
2022/08/23 10:19:47;;;;;;;1.83;1.05;;;29.50;96.70;;;;;;5043953;28;20047;-74
2022/08/23 10:22:20;;;;;;;1.92;1.15;;;29.60;96.70;;;;;;5033953;28;20545;-74
2022/08/23 10:25:25;;;;;;;2.08;1.00;;;29.50;96.70;;;;;;5034821;28;20073;-74
2022/08/23 10:30:56;;;;;;;2.75;1.30;;;29.90;96.70;;;;;;5045283;28;20052;-74
2022/08/23 10:33:44;;;;;;;1.95;1.13;;;30.30;96.70;;;;;;5043550;28;20048;-73
2022/08/23 10:36:22;;;;;;;2.35;1.13;;;30.40;96.70;;;;;;5034186;28;20102;-73
2022/08/23 10:38:56;;;;;;;1.50;0.98;;;30.40;96.70;;;;;;5059885;28;20415;-74
2022/08/23 10:41:45;;;;;;;1.35;1.10;;;30.50;96.70;;;;;;5035143;28;20056;-73
2022/08/23 10:44:24;;;;;;;1.83;0.90;;;30.40;96.70;;;;;;5052724;28;20554;-72
2022/08/23 10:47:06;;;;;;;1.88;0.88;;;30.40;96.70;;;;;;5026793;28;20094;-72
2022/08/23 10:49:39;;;;;;;1.27;0.90;;;30.70;96.70;;;;;;5056985;28;20414;-72
2022/08/23 10:52:17;;;;;;;1.90;0.77;;;30.80;96.70;;;;;;5041183;28;20055;-74
2022/08/23 10:54:58;;;;;;;1.00;0.90;;;30.90;96.70;;;;;;5067331;28;20045;-74
2022/08/23 10:57:34;;;;;;;1.67;0.80;;;31.00;96.70;;;;;;5042186;28;20139;-74
2022/08/23 11:00:07;;;;;;;1.63;0.70;;;31.10;96.70;;;;;;5051911;28;20102;-74
2022/08/23 11:02:48;;;;;;;0.90;0.60;;;31.20;96.70;;;;;;5040894;28;20482;-74
2022/08/23 11:05:26;;;;;;;1.08;0.73;;;31.30;96.70;;;;;;5036620;28;20057;-74
2022/08/23 11:08:03;;;;;;;2.85;1.27;;;31.30;96.70;;;;;;5027914;28;20069;-74
2022/08/23 11:10:46;;;;;;;1.10;1.00;;;31.00;96.70;;;;;;5072512;28;20051;-74
2022/08/23 11:13:30;;;;;;;0.98;0.70;;;31.10;96.70;;;;;;5039949;28;20313;-74
2022/08/23 11:16:04;;;;;;;1.85;0.70;;;31.10;96.70;;;;;;5037875;28;20534;-74
2022/08/23 11:18:40;;;;;;;1.17;0.80;;;31.10;96.70;;;;;;5043281;28;20080;-74
2022/08/23 11:21:32;;;;;;;1.70;0.70;;;31.00;96.70;;;;;;5039105;28;20533;-73
2022/08/23 11:24:29;;;;;;;0.90;0.68;;;31.00;96.70;;;;;;5035931;28;20049;-73
2022/08/23 11:27:05;;;;;;;2.65;0.77;;;31.00;96.70;;;;;;5033496;28;20465;-74
2022/08/23 11:29:42;;;;;;;1.83;0.98;;;31.20;96.70;;;;;;5040114;28;20090;-74
2022/08/23 11:32:44;;;;;;;1.75;1.10;;;31.30;96.70;;;;;;4948424;28;20055;-74
2022/08/23 11:35:40;;;;;;;3.33;1.00;;;31.70;96.00;;;;;;4927846;28;20052;-74
2022/08/23 11:38:14;;;;;;;1.20;1.10;;;31.90;96.10;;;;;;4920297;28;20052;-74
2022/08/23 11:41:10;;;;;;;1.63;0.95;;;32.10;94.00;;;;;;4930854;28;20143;-74
2022/08/23 11:43:40;;;;;;;2.13;0.93;;;32.40;94.70;;;;;;4941358;28;20062;-74
2022/08/23 11:46:33;;;;;;;1.33;0.90;;;32.50;95.30;;;;;;4943674;28;20062;-73
2022/08/23 11:49:50;;;;;;;1.77;0.90;;;32.70;94.10;;;;;;4924913;28;20043;-73
2022/08/23 11:52:34;;;;;;;0.95;0.70;;;32.90;93.90;;;;;;4931029;29;20043;-74
2022/08/23 11:55:31;;;;;;;1.13;0.70;;;33.00;93.50;;;;;;4942299;28;20062;-73
2022/08/23 11:58:21;;;;;;;2.67;0.80;;;33.00;92.30;;;;;;4924650;28;20535;-74
2022/08/23 12:01:04;;;;;;;1.02;0.73;;;33.30;93.20;;;;;;4944312;28;20047;-73
2022/08/23 12:03:58;;;;;;;0.65;0.60;;;33.30;90.30;;;;;;4940554;28;20110;-74
2022/08/23 12:06:43;;;;;;;1.10;0.88;;;33.40;91.60;;;;;;4906630;29;20545;-73
2022/08/23 12:09:50;;;;;;;2.03;0.70;;;33.30;90.40;;;;;;4956211;28;20053;-74
2022/08/23 12:12:31;;;;;;;0.70;0.70;;;33.00;91.10;;;;;;5004524;28;20559;-74
2022/08/23 12:15:10;;;;;;;1.35;1.00;;;33.00;91.30;;;;;;5000330;28;20054;-72
2022/08/23 12:18:05;;;;;;;0.80;0.80;;;33.00;91.40;;;;;;4987797;28;20530;-73
2022/08/23 12:20:34;;;;;;;2.35;0.82;;;33.10;91.60;;;;;;5011841;28;20591;-73
2022/08/23 12:23:20;;;;;;;0.50;0.50;;;33.10;89.00;;;;;;4999659;28;20042;-72
2022/08/23 12:26:03;;;;;;;0.60;0.50;;;33.10;88.40;;;;;;4995859;28;20184;-73
2022/08/23 12:28:38;;;;;;;4.47;0.90;;;33.20;88.90;;;;;;4987731;28;20056;-74
2022/08/23 12:31:20;;;;;;;2.35;0.57;;;33.10;88.30;;;;;;4978250;28;20066;-74
2022/08/23 12:34:06;;;;;;;1.88;0.70;;;33.30;88.30;;;;;;5001094;28;20057;-74
2022/08/23 12:36:43;;;;;;;1.23;0.68;;;33.10;90.20;;;;;;4999590;28;20467;-74
2022/08/23 12:39:22;;;;;;;1.13;0.93;;;33.10;91.20;;;;;;5024977;28;20049;-74
2022/08/23 12:41:54;;;;;;;0.70;0.70;;;33.20;90.30;;;;;;5013608;28;20723;-74
2022/08/23 12:44:25;;;;;;;2.10;0.70;;;33.20;88.60;;;;;;5024594;28;20146;-73
2022/08/23 12:46:55;;;;;;;1.40;0.80;;;33.30;89.70;;;;;;5014838;28;20049;-72
2022/08/23 12:49:28;;;;;;;1.23;0.52;;;33.20;89.60;;;;;;5016252;28;20069;-72
2022/08/23 12:51:59;;;;;;;0.70;0.70;;;33.10;89.70;;;;;;5014037;28;20053;-73
2022/08/23 12:54:37;;;;;;;1.92;0.82;;;33.40;88.70;;;;;;5026283;28;20041;-71
2022/08/23 12:57:10;;;;;;;1.10;0.90;;;33.60;87.40;;;;;;5019535;28;20045;-72
2022/08/23 12:59:44;;;;;;;1.27;0.73;;;33.80;87.60;;;;;;5012701;28;20443;-72
2022/08/23 13:05:47;;;;;;;2.28;0.60;;;33.60;87.90;;;;;;5042973;28;20063;-72
2022/08/23 13:08:22;;;;;;;0.82;0.55;;;33.80;88.70;;;;;;5063076;28;20529;-72
2022/08/23 13:11:03;;;;;;;0.70;0.60;;;33.70;87.40;;;;;;5055861;28;20056;-72
2022/08/23 13:13:38;;;;;;;1.30;0.60;;;33.80;86.00;;;;;;5054563;28;20049;-72
2022/08/23 13:16:22;;;;;;;1.25;0.65;;;33.70;87.10;;;;;;5055132;28;20102;-72
2022/08/23 13:19:08;;;;;;;1.52;0.80;;;34.00;87.50;;;;;;5051673;28;20052;-73
2022/08/23 13:21:38;;;;;;;2.53;0.70;;;34.00;87.00;;;;;;5054288;28;20037;-72
2022/08/23 13:24:28;;;;;;;1.20;0.70;;;33.90;87.30;;;;;;5056167;28;20499;-74
2022/08/23 13:27:14;;;;;;;1.10;0.70;;;33.90;86.20;;;;;;5053707;28;20052;-73
2022/08/23 13:29:51;;;;;;;2.45;0.60;;;34.10;86.20;;;;;;5046773;28;20512;-74
2022/08/23 13:32:35;;;;;;;1.98;0.60;;;34.20;86.50;;;;;;5056416;28;20040;-73
2022/08/23 13:35:30;;;;;;;0.70;0.50;;;34.20;85.60;;;;;;5057622;28;20041;-73
2022/08/23 13:38:09;;;;;;;;;;;34.30;82.90;;;;;;5060005;28;20033;-73
2022/08/23 13:40:45;;;;;;;0.98;0.70;;;34.60;84.10;;;;;;5040251;28;19970;-74
2022/08/23 13:43:19;;;;;;;1.13;0.88;;;34.70;84.10;;;;;;5040173;28;20041;-73
2022/08/23 13:45:53;;;;;;;1.27;0.70;;;34.60;84.30;;;;;;5042994;28;20068;-74